Time;durP1;ratioP1;P1;durP2;ratioP2;P2;SDS_P1;SDS_P2;PMS_P1;PMS_P2;Temp;Humidity;BMP_temperature;BMP_pressure;BME280_temperature;BME280_humidity;BME280_pressure;Samples;Min_cycle;Max_cycle;Signal;HPM_P1;HPM_P2
2022/08/19 00:00:06;;;;;;;;;;;19.00;99.90;;;;;;5032716;28;19921;-69
2022/08/19 00:02:32;;;;;;;;;;;19.10;99.90;;;;;;5018869;28;19917;-69
2022/08/19 00:04:57;;;;;;;;;;;19.00;99.90;;;;;;5028880;28;20789;-69
2022/08/19 00:07:23;;;;;;;;;;;19.00;99.90;;;;;;5028286;28;19943;-69
2022/08/19 00:09:49;;;;;;;;;;;19.00;99.90;;;;;;5019356;28;20376;-69
2022/08/19 00:12:15;;;;;;;;;;;19.10;99.90;;;;;;5031552;28;20427;-68
2022/08/19 00:14:40;;;;;;;;;;;19.00;99.90;;;;;;5040489;28;19924;-69
2022/08/19 00:17:06;;;;;;;;;;;19.10;99.90;;;;;;5038690;28;19928;-69
2022/08/19 00:19:32;;;;;;;;;;;19.10;99.90;;;;;;5029106;28;19917;-69
2022/08/19 00:21:58;;;;;;;;;;;19.10;99.90;;;;;;5021452;28;20296;-69
2022/08/19 00:24:24;;;;;;;;;;;19.20;99.90;;;;;;5035881;28;20001;-69
2022/08/19 00:26:50;;;;;;;;;;;19.20;99.90;;;;;;5033759;28;20368;-69
2022/08/19 00:29:17;;;;;;;;;;;19.20;99.90;;;;;;5036601;28;20011;-69
2022/08/19 00:31:43;;;;;;;;;;;19.30;99.90;;;;;;5039812;28;19974;-69
2022/08/19 00:34:09;;;;;;;;;;;19.30;99.90;;;;;;5038979;28;19913;-69
2022/08/19 00:36:35;;;;;;;;;;;19.30;99.90;;;;;;5039056;28;19925;-69
2022/08/19 00:39:01;;;;;;;;;;;19.30;99.90;;;;;;5037123;28;19917;-70
2022/08/19 00:41:27;;;;;;;;;;;19.30;99.90;;;;;;5038104;28;19962;-69
2022/08/19 00:44:04;;;;;;;;;;;19.30;99.90;;;;;;5037130;28;19921;-70
2022/08/19 00:46:30;;;;;;;;;;;19.30;99.90;;;;;;5037854;28;20011;-69
2022/08/19 00:48:57;;;;;;;;;;;19.30;99.90;;;;;;5036868;28;20019;-69
2022/08/19 00:51:24;;;;;;;;;;;19.30;99.90;;;;;;5039321;28;19921;-69
2022/08/19 00:53:50;;;;;;;;;;;19.30;99.90;;;;;;5038530;28;20071;-69
2022/08/19 00:56:16;;;;;;;;;;;19.30;99.90;;;;;;5038729;28;20040;-69
2022/08/19 00:58:41;;;;;;;;;;;19.30;99.90;;;;;;5036245;28;19975;-69
2022/08/19 01:01:07;;;;;;;;;;;19.30;99.90;;;;;;5022710;28;19917;-69
2022/08/19 01:03:33;;;;;;;;;;;19.30;99.90;;;;;;5030716;28;20621;-69
2022/08/19 01:05:59;;;;;;;;;;;19.30;99.90;;;;;;5008194;28;19994;-69
2022/08/19 01:08:25;;;;;;;;;;;19.30;99.90;;;;;;5020001;28;20043;-69
2022/08/19 01:10:54;;;;;;;;;;;19.30;99.90;;;;;;5025904;28;19940;-69
2022/08/19 01:13:22;;;;;;;;;;;19.30;99.90;;;;;;5039593;28;20639;-69
2022/08/19 01:15:54;;;;;;;;;;;19.20;99.90;;;;;;5037828;28;20191;-69
2022/08/19 01:18:20;;;;;;;;;;;19.20;99.90;;;;;;5032654;28;19916;-69
2022/08/19 01:20:46;;;;;;;;;;;19.20;99.90;;;;;;5039590;28;20375;-69
2022/08/19 01:23:12;;;;;;;;;;;19.20;99.90;;;;;;5038336;28;19913;-69
2022/08/19 01:25:43;;;;;;;;;;;19.20;99.90;;;;;;5038567;28;19912;-70
2022/08/19 01:28:13;;;;;;;;;;;19.20;99.90;;;;;;5036184;28;19921;-69
2022/08/19 01:30:39;;;;;;;;;;;19.20;99.90;;;;;;5033976;28;19959;-69
2022/08/19 01:33:05;;;;;;;;;;;19.20;99.90;;;;;;5020966;28;20494;-70
2022/08/19 01:35:32;;;;;;;;;;;19.20;99.90;;;;;;5034878;28;19940;-69
2022/08/19 01:38:02;;;;;;;;;;;19.20;99.90;;;;;;5036624;28;19971;-69
2022/08/19 01:40:29;;;;;;;;;;;19.20;99.90;;;;;;5038163;28;20372;-70
2022/08/19 01:42:55;;;;;;;;;;;19.20;99.90;;;;;;5038028;28;19924;-69
2022/08/19 01:45:21;;;;;;;;;;;19.20;99.90;;;;;;5037847;28;19921;-70
2022/08/19 01:47:47;;;;;;;;;;;19.20;99.90;;;;;;5036667;28;20540;-69
2022/08/19 01:50:13;;;;;;;;;;;19.20;99.90;;;;;;5010751;28;19917;-69
2022/08/19 01:52:39;;;;;;;;;;;19.20;99.90;;;;;;5016371;28;19921;-69
2022/08/19 01:55:06;;;;;;;;;;;19.20;99.90;;;;;;5020879;28;19928;-69
2022/08/19 01:57:31;;;;;;;;;;;19.20;99.90;;;;;;5034208;28;20364;-69
2022/08/19 01:59:57;;;;;;;;;;;19.20;99.90;;;;;;5015322;28;19960;-71
2022/08/19 02:02:22;;;;;;;;;;;19.20;99.90;;;;;;5014859;28;19921;-69
2022/08/19 02:04:48;;;;;;;;;;;19.20;99.90;;;;;;5035917;28;20407;-69
2022/08/19 02:07:14;;;;;;;;;;;19.20;99.90;;;;;;5034826;28;20513;-69
2022/08/19 02:09:39;;;;;;;;;;;19.20;99.90;;;;;;5025747;28;19917;-69
2022/08/19 02:12:07;;;;;;;;;;;19.20;99.90;;;;;;5018236;28;19917;-69
2022/08/19 02:14:33;;;;;;;;;;;19.20;99.90;;;;;;5031007;28;19917;-69
2022/08/19 02:16:59;;;;;;;;;;;19.30;99.90;;;;;;5037690;28;20450;-69
2022/08/19 02:19:24;;;;;;;;;;;19.20;99.90;;;;;;5026811;28;19917;-69
2022/08/19 02:21:50;;;;;;;;;;;19.30;99.90;;;;;;5017586;28;19917;-69
2022/08/19 02:24:16;;;;;;;;;;;19.20;99.90;;;;;;5027428;28;20343;-69
2022/08/19 02:26:41;;;;;;;;;;;19.30;99.90;;;;;;5020821;28;19956;-69
2022/08/19 02:29:07;;;;;;;;;;;19.30;99.90;;;;;;5036928;28;19932;-69
2022/08/19 02:31:33;;;;;;;;;;;19.20;99.90;;;;;;5037847;28;19951;-69
2022/08/19 02:33:58;;;;;;;;;;;19.20;99.90;;;;;;5036020;28;19992;-69
2022/08/19 02:36:25;;;;;;;;;;;19.20;99.90;;;;;;5018524;28;19924;-69
2022/08/19 02:38:50;;;;;;;;;;;19.20;99.90;;;;;;5007106;28;19916;-69
2022/08/19 02:41:24;;;;;;;;;;;19.20;99.90;;;;;;5031386;28;20417;-69
2022/08/19 02:43:49;;;;;;;;;;;19.20;99.90;;;;;;5028011;28;20388;-69
2022/08/19 02:46:20;;;;;;;;;;;19.10;99.90;;;;;;5012339;28;19924;-69
2022/08/19 02:48:50;;;;;;;;;;;19.20;99.90;;;;;;5026856;28;20911;-69
2022/08/19 02:51:17;;;;;;;;;;;19.20;99.90;;;;;;5037962;28;19916;-70
2022/08/19 02:53:44;;;;;;;;;;;19.10;99.90;;;;;;5029702;28;19932;-70
2022/08/19 02:56:09;;;;;;;;;;;19.10;99.90;;;;;;5018200;28;19990;-70
2022/08/19 02:58:35;;;;;;;;;;;19.10;99.90;;;;;;5018272;28;19917;-69
2022/08/19 03:01:00;;;;;;;;;;;19.10;99.90;;;;;;5023171;28;19932;-69
2022/08/19 03:03:26;;;;;;;;;;;19.10;99.90;;;;;;5032160;28;19917;-69
2022/08/19 03:06:01;;;;;;;;;;;19.10;99.90;;;;;;5030752;28;20003;-69
2022/08/19 03:08:27;;;;;;;;;;;19.00;99.90;;;;;;5018741;28;19913;-69
2022/08/19 03:10:53;;;;;;;;;;;19.10;99.90;;;;;;5037358;28;19920;-69
2022/08/19 03:13:19;;;;;;;;;;;19.10;99.90;;;;;;5020694;28;20473;-69
2022/08/19 03:15:46;;;;;;;;;;;19.10;99.90;;;;;;5023746;28;20397;-69
2022/08/19 03:18:12;;;;;;;;;;;19.00;99.90;;;;;;5024704;28;19917;-69
2022/08/19 03:20:45;;;;;;;;;;;19.10;99.90;;;;;;5037951;28;20007;-69
2022/08/19 03:23:12;;;;;;;;;;;19.10;99.90;;;;;;5037066;28;19962;-69
2022/08/19 03:25:40;;;;;;;;;;;19.00;99.90;;;;;;5028240;28;19999;-69
2022/08/19 03:28:07;;;;;;;;;;;19.00;99.90;;;;;;5036662;28;20399;-69
2022/08/19 03:30:33;;;;;;;;;;;19.00;99.90;;;;;;5032806;28;19919;-69
2022/08/19 03:32:58;;;;;;;;;;;19.10;99.90;;;;;;5028710;28;20345;-69
2022/08/19 03:35:24;;;;;;;;;;;19.10;99.90;;;;;;5025266;28;19936;-69
2022/08/19 03:37:50;;;;;;;;;;;19.00;99.90;;;;;;5031744;28;19917;-69
2022/08/19 03:40:16;;;;;;;;;;;19.00;99.90;;;;;;5015857;28;20361;-69
2022/08/19 03:42:42;;;;;;;;;;;19.10;99.90;;;;;;5016138;28;19952;-69
2022/08/19 03:45:07;;;;;;;;;;;19.10;99.90;;;;;;5034712;28;20276;-69
2022/08/19 03:47:33;;;;;;;;;;;19.10;99.90;;;;;;5016363;28;20137;-69
2022/08/19 03:49:59;;;;;;;;;;;19.10;99.90;;;;;;5013041;28;19917;-69
2022/08/19 03:52:24;;;;;;;;;;;19.10;99.90;;;;;;5021232;28;19963;-69
2022/08/19 03:54:50;;;;;;;;;;;19.20;99.90;;;;;;5021288;28;20037;-69
2022/08/19 03:57:15;;;;;;;;;;;19.10;99.90;;;;;;5037413;28;20011;-69
2022/08/19 03:59:41;;;;;;;;;;;19.10;99.90;;;;;;5027267;28;20020;-69
2022/08/19 04:02:08;;;;;;;;;;;19.10;99.90;;;;;;5019406;28;19924;-69
2022/08/19 04:04:34;;;;;;;;;;;19.10;99.90;;;;;;5041463;28;20025;-69
2022/08/19 04:07:00;;;;;;;;;;;19.00;99.90;;;;;;5040815;28;20521;-69
2022/08/19 04:09:25;;;;;;;;;;;19.10;99.90;;;;;;5038812;28;19913;-69
2022/08/19 04:11:55;;;;;;;;;;;19.00;99.90;;;;;;5039076;28;19970;-69
2022/08/19 04:14:23;;;;;;;;;;;19.00;99.90;;;;;;5032188;28;19921;-69
2022/08/19 04:16:49;;;;;;;;;;;19.00;99.90;;;;;;5032593;28;19931;-69
2022/08/19 04:19:16;;;;;;;;;;;18.90;99.90;;;;;;5037094;28;19913;-69
2022/08/19 04:21:43;;;;;;;;;;;19.00;99.90;;;;;;5039465;28;19920;-69
2022/08/19 04:24:09;;;;;;;;;;;19.00;99.90;;;;;;5038783;28;19916;-69
2022/08/19 04:26:35;;;;;;;;;;;18.90;99.90;;;;;;5032314;28;19917;-69
2022/08/19 04:29:03;;;;;;;;;;;18.90;99.90;;;;;;5029372;28;19928;-69
2022/08/19 04:31:30;;;;;;;;;;;18.90;99.90;;;;;;5035861;28;19916;-69
2022/08/19 04:33:57;;;;;;;;;;;18.90;99.90;;;;;;5030506;28;20394;-69
2022/08/19 04:36:24;;;;;;;;;;;18.90;99.90;;;;;;5030271;28;20001;-69
2022/08/19 04:38:52;;;;;;;;;;;18.90;99.90;;;;;;5031069;28;19917;-69
2022/08/19 04:44:02;;;;;;;;;;;18.90;99.90;;;;;;5031466;28;20671;-69
2022/08/19 04:46:30;;;;;;;;;;;18.90;99.90;;;;;;5034309;28;19917;-69
2022/08/19 04:48:56;;;;;;;;;;;18.90;99.90;;;;;;5020466;28;19995;-69
2022/08/19 04:51:22;;;;;;;;;;;18.90;99.90;;;;;;5036467;28;19924;-69
2022/08/19 04:53:48;;;;;;;;;;;18.90;99.90;;;;;;5027213;28;19925;-68
2022/08/19 04:56:14;;;;;;;;;;;18.90;99.90;;;;;;5020951;28;19928;-69
2022/08/19 04:58:42;;;;;;;;;;;18.90;99.90;;;;;;5037246;28;19928;-69
2022/08/19 05:01:08;;;;;;;;;;;18.90;99.90;;;;;;5026768;28;19921;-69
2022/08/19 05:03:34;;;;;;;;;;;19.00;99.90;;;;;;5023822;28;19921;-69
2022/08/19 05:06:07;;;;;;;;;;;19.00;99.90;;;;;;5035678;28;19966;-69
2022/08/19 05:08:33;;;;;;;;;;;19.00;99.90;;;;;;5038311;28;19916;-69
2022/08/19 05:10:59;;;;;;;;;;;19.00;99.90;;;;;;5038141;28;20317;-69
2022/08/19 05:13:25;;;;;;;;;;;19.10;99.90;;;;;;5035527;28;19929;-69
2022/08/19 05:15:54;;;;;;;;;;;19.10;99.90;;;;;;5024825;28;19936;-69
2022/08/19 05:23:52;;;;;;;;;;;19.10;99.90;;;;;;5039780;28;19998;-69
2022/08/19 05:26:18;;;;;;;;;;;19.10;99.90;;;;;;5039128;28;20352;-69
2022/08/19 05:28:43;;;;;;;;;;;19.10;99.90;;;;;;5030871;28;19928;-69
2022/08/19 05:31:09;;;;;;;;;;;19.20;99.90;;;;;;5037582;28;19913;-69
2022/08/19 05:33:35;;;;;;;;;;;19.20;99.90;;;;;;5027786;28;19935;-69
2022/08/19 05:36:02;;;;;;;;;;;19.20;99.90;;;;;;5039778;28;19925;-69
2022/08/19 05:38:28;;;;;;;;;;;19.20;99.90;;;;;;5038490;28;20729;-69
2022/08/19 05:40:53;;;;;;;;;;;19.30;99.90;;;;;;5022427;28;19927;-68
2022/08/19 05:43:19;;;;;;;;;;;19.30;99.90;;;;;;5020080;28;19917;-69
2022/08/19 05:45:45;;;;;;;;;;;19.30;99.90;;;;;;5036970;28;19956;-69
2022/08/19 05:48:11;;;;;;;;;;;19.30;99.90;;;;;;5036215;28;19964;-69
2022/08/19 05:50:37;;;;;;;;;;;19.40;99.90;;;;;;5033930;28;20016;-69
2022/08/19 05:53:03;;;;;;;;;;;19.40;99.90;;;;;;5018452;28;20050;-69
2022/08/19 05:55:28;;;;;;;;;;;19.40;99.90;;;;;;5038144;28;20394;-69
2022/08/19 05:57:54;;;;;;;;;;;19.50;99.90;;;;;;5037267;28;19917;-69
2022/08/19 06:00:19;;;;;;;;;;;19.50;99.90;;;;;;5017221;28;20400;-69
2022/08/19 06:02:45;;;;;;;;;;;19.60;99.90;;;;;;5034089;28;20407;-69
2022/08/19 06:05:11;;;;;;;;;;;19.60;99.90;;;;;;5041006;28;19916;-69
2022/08/19 06:07:37;;;;;;;;;;;19.70;99.90;;;;;;5043556;28;19963;-69
2022/08/19 06:10:07;;;;;;;;;;;19.70;99.90;;;;;;5046871;28;19920;-69
2022/08/19 06:12:34;;;;;;;;;;;19.70;99.90;;;;;;5045956;28;19917;-69
2022/08/19 06:15:00;;;;;;;;;;;19.80;99.90;;;;;;5045819;28;19916;-69
2022/08/19 06:17:26;;;;;;;;;;;19.80;99.90;;;;;;5041530;28;19917;-69
2022/08/19 06:19:52;;;;;;;;;;;19.90;99.90;;;;;;5044298;28;20260;-69
2022/08/19 06:22:17;;;;;;;;;;;19.90;99.90;;;;;;5027560;28;19917;-70
2022/08/19 06:24:43;;;;;;;;;;;19.90;99.90;;;;;;5040881;28;20384;-69
2022/08/19 06:27:09;;;;;;;;;;;20.00;99.90;;;;;;5038006;28;19924;-69
2022/08/19 06:29:34;;;;;;;;;;;20.10;99.90;;;;;;5032870;28;19920;-69
2022/08/19 06:32:02;;;;;;;;;;;20.10;99.90;;;;;;5032786;28;19928;-69
2022/08/19 06:34:28;;;;;;;;;;;20.30;99.90;;;;;;5017269;28;19944;-69
2022/08/19 06:36:54;;;;;;;;;;;20.40;99.90;;;;;;5034912;28;19924;-69
2022/08/19 06:39:21;;;;;;;;;;;20.60;99.90;;;;;;5032914;28;20338;-68
2022/08/19 06:41:48;;;;;;;;;;;20.80;99.90;;;;;;5024374;28;20863;-69
2022/08/19 06:44:14;;;;;;;;;;;21.00;99.90;;;;;;5031385;28;19927;-69
2022/08/19 06:46:41;;;;;;;;;;;21.10;99.90;;;;;;4685025;28;10000386;-69
2022/08/19 06:49:11;;;;;;;;;;;21.30;99.90;;;;;;5025502;28;19913;-69
2022/08/19 06:51:36;;;;;;;;;;;21.50;99.90;;;;;;5027214;28;19921;-69
2022/08/19 06:54:02;;;;;;;;;;;21.60;99.90;;;;;;5029911;28;20421;-69
2022/08/19 06:56:34;;;;;;;;;;;21.60;99.90;;;;;;5027470;28;20409;-69
2022/08/19 06:59:04;;;;;;;;;;;21.60;99.90;;;;;;5023227;28;20383;-69
2022/08/19 07:01:33;;;;;;;;;;;21.70;99.90;;;;;;5020343;28;19920;-69
2022/08/19 07:04:01;;;;;;;;;;;21.80;99.90;;;;;;5020730;28;20039;-69
2022/08/19 07:06:26;;;;;;;;;;;22.00;99.90;;;;;;5023048;28;19921;-68
2022/08/19 07:08:52;;;;;;;;;;;22.20;99.90;;;;;;5030020;28;19968;-69
2022/08/19 07:11:18;;;;;;;;;;;22.40;99.90;;;;;;5033046;28;19948;-69
2022/08/19 07:13:45;;;;;;;;;;;22.50;99.90;;;;;;5017554;28;19920;-69
2022/08/19 07:16:16;;;;;;;;;;;22.50;99.90;;;;;;5030485;28;19925;-69
2022/08/19 07:18:42;;;;;;;;;;;22.50;99.90;;;;;;5016005;28;19917;-69
2022/08/19 07:21:12;;;;;;;;;;;22.40;99.90;;;;;;5017664;28;20333;-69
2022/08/19 07:23:37;;;;;;;;;;;22.30;99.90;;;;;;5021501;28;19967;-73
2022/08/19 07:26:11;;;;;;;;;;;22.40;99.90;;;;;;5051213;28;19952;-73
2022/08/19 07:28:39;;;;;;;;;;;22.30;99.90;;;;;;5054738;23;20176;-71
2022/08/19 07:31:07;;;;;;;;;;;22.30;99.90;;;;;;5058678;28;19966;-74
2022/08/19 07:33:36;;;;;;;;;;;22.30;99.90;;;;;;5058559;28;19928;-73
2022/08/19 07:36:06;;;;;;;;;;;22.20;99.90;;;;;;5057370;28;20664;-72
2022/08/19 07:38:31;;;;;;;;;;;22.20;99.90;;;;;;5057070;28;19912;-73
2022/08/19 07:40:57;;;;;;;;;;;22.10;99.90;;;;;;5054833;28;20444;-72
2022/08/19 07:43:24;;;;;;;;;;;22.00;99.90;;;;;;5036788;28;20684;-72
2022/08/19 07:45:56;;;;;;;;;;;22.00;99.90;;;;;;5035522;28;20348;-73
2022/08/19 07:48:25;;;;;;;;;;;22.30;99.90;;;;;;5059696;28;20019;-70
2022/08/19 07:50:52;;;;;;;;;;;22.50;99.90;;;;;;5057071;28;19932;-69
2022/08/19 07:53:18;;;;;;;;;;;22.60;99.90;;;;;;5057674;28;20462;-69
2022/08/19 07:55:44;;;;;;;;;;;22.50;99.90;;;;;;5030795;28;19924;-69
2022/08/19 07:58:12;;;;;;;;;;;22.40;99.90;;;;;;5039532;28;19916;-69
2022/08/19 08:00:38;;;;;;;;;;;22.40;99.90;;;;;;5058069;28;20384;-69
2022/08/19 08:03:03;;;;;;;;;;;22.80;99.90;;;;;;5073082;28;19916;-69
2022/08/19 08:10:58;;;;;;;;;;;24.10;99.90;;;;;;5052478;28;20237;-69
2022/08/19 08:13:24;;;;;;;;;;;24.20;99.90;;;;;;5057159;28;19961;-72
2022/08/19 08:15:50;;;;;;;;;;;24.00;99.90;;;;;;5034943;28;19928;-75
2022/08/19 08:18:15;;;;;;;;;;;23.70;99.90;;;;;;5029340;28;19916;-76
2022/08/19 08:20:41;;;;;;;;;;;23.90;99.90;;;;;;5049359;28;19928;-70
2022/08/19 08:23:25;;;;;;;;;;;24.20;99.90;;;;;;5031443;28;20702;-69
2022/08/19 08:25:52;;;;;;;;;;;24.50;99.90;;;;;;5046531;28;19946;-70
2022/08/19 08:28:18;;;;;;;;;;;24.80;99.90;;;;;;5046858;28;19931;-70
2022/08/19 08:30:45;;;;;;;;;;;25.80;99.90;;;;;;5047713;28;19920;-70
2022/08/19 08:33:11;;;;;;;;;;;25.50;99.90;;;;;;5031990;28;19925;-70
2022/08/19 08:35:37;;;;;;;;;;;25.50;99.90;;;;;;5047386;28;19920;-70
2022/08/19 08:38:04;;;;;;;;;;;25.30;99.90;;;;;;5031362;28;19927;-76
2022/08/19 08:40:41;;;;;;;;;;;25.40;99.90;;;;;;5040787;28;19916;-75
2022/08/19 08:43:26;;;;;;;;;;;25.50;99.90;;;;;;5020037;28;20016;-74
2022/08/19 08:45:54;;;;;;;;;;;25.30;99.90;;;;;;5021535;28;19952;-70
2022/08/19 08:48:24;;;;;;;;;;;25.40;99.90;;;;;;5040197;28;20019;-70
2022/08/19 08:50:52;;;;;;;;;;;26.10;99.90;;;;;;5041403;28;19970;-70
2022/08/19 08:53:19;;;;;;;;;;;26.30;99.90;;;;;;5045861;28;20505;-70
2022/08/19 08:55:45;;;;;;;;;;;25.90;99.90;;;;;;5047935;28;19997;-70
2022/08/19 08:58:41;;;;;;;;;;;25.60;99.90;;;;;;5050443;28;20010;-70
2022/08/19 09:01:09;;;;;;;;;;;25.20;99.90;;;;;;5027873;28;19976;-71
2022/08/19 09:03:37;;;;;;;;;;;24.90;99.90;;;;;;5033994;28;19917;-70
2022/08/19 09:06:02;;;;;;;;;;;24.60;99.90;;;;;;5054202;28;19920;-71
2022/08/19 09:08:28;;;;;;;;;;;24.40;99.90;;;;;;5055079;28;19990;-70
2022/08/19 09:10:54;;;;;;;;;;;24.00;99.90;;;;;;5048302;28;19928;-70
2022/08/19 09:13:31;;;;;;;;;;;23.70;99.90;;;;;;5061854;28;19920;-70
2022/08/19 09:16:01;;;;;;;;;;;23.50;99.90;;;;;;5043051;28;19920;-70
2022/08/19 09:18:38;;;;;;;;;;;23.40;99.90;;;;;;5055196;28;20119;-70
2022/08/19 09:21:03;;;;;;;;;;;23.30;99.90;;;;;;5060066;28;19916;-70
2022/08/19 09:23:29;;;;;;;;;;;23.30;99.90;;;;;;5070602;28;19916;-70
2022/08/19 09:25:54;;;;;;;;;;;23.50;99.90;;;;;;5048490;28;20399;-68
2022/08/19 09:28:20;;;;;;;;;;;23.80;99.90;;;;;;5042326;28;19973;-67
2022/08/19 09:30:45;;;;;;;;;;;24.00;99.90;;;;;;5046720;28;19974;-67
2022/08/19 09:33:11;;;;;;;;;;;24.20;99.90;;;;;;5044997;28;19967;-67
2022/08/19 09:35:37;;;;;;;;;;;24.40;99.90;;;;;;5045325;28;20011;-67
2022/08/19 09:38:02;;;;;;;;;;;24.50;99.90;;;;;;5027042;28;20458;-67
2022/08/19 09:40:29;;;;;;;;;;;25.20;99.90;;;;;;5047209;28;20137;-67
2022/08/19 09:42:54;;;;;;;;;;;25.60;99.90;;;;;;5043820;28;20010;-67
2022/08/19 09:45:21;;;;;;;;;;;25.60;99.90;;;;;;5052649;28;20419;-68
2022/08/19 09:47:47;;;;;;;;;;;25.30;99.90;;;;;;5042823;28;19916;-67
2022/08/19 09:50:13;;;;;;;;;;;25.40;99.90;;;;;;5044111;28;20007;-67
2022/08/19 09:52:39;;;;;;;;;;;25.30;99.90;;;;;;5044188;28;19917;-67
2022/08/19 09:55:08;;;;;;;;;;;25.30;99.90;;;;;;5022813;28;20033;-67
2022/08/19 09:57:34;;;;;;;;;;;25.10;99.90;;;;;;5054032;28;20311;-67
2022/08/19 09:59:59;;;;;;;;;;;24.90;99.90;;;;;;5051331;28;20818;-68
2022/08/19 10:02:25;;;;;;;;;;;24.80;99.90;;;;;;5038438;28;19916;-67
2022/08/19 10:07:35;;;;;;;;;;;24.30;99.90;;;;;;4693759;28;10000269;-67
2022/08/19 10:10:02;;;;;;;;;;;24.00;99.90;;;;;;5052542;28;19920;-67
2022/08/19 10:12:28;;;;;;;;;;;23.70;99.90;;;;;;5044892;28;19920;-67
2022/08/19 10:14:54;;;;;;;;;;;23.30;99.90;;;;;;5043000;28;21110;-68
2022/08/19 10:17:19;;;;;;;;;;;23.00;99.90;;;;;;5024146;28;19964;-70
2022/08/19 10:19:45;;;;;;;;;;;22.50;99.90;;;;;;5041700;28;19916;-71
2022/08/19 10:22:13;;;;;;;;;;;22.20;99.90;;;;;;5043584;28;19929;-70
2022/08/19 10:24:39;;;;;;;;;;;22.00;99.90;;;;;;5039507;28;19924;-69
2022/08/19 10:27:05;;;;;;;;;;;21.70;99.90;;;;;;5044122;28;19917;-69
2022/08/19 10:29:34;;;;;;;;;;;21.80;99.90;;;;;;5046306;28;20326;-70
2022/08/19 10:32:07;;;;;;;;;;;22.20;99.90;;;;;;5049848;28;20426;-70
2022/08/19 10:34:33;;;;;;;;;;;22.50;99.90;;;;;;5041575;28;19919;-71
2022/08/19 10:37:00;;;;;;;;;;;22.50;99.90;;;;;;5043922;28;19920;-71
2022/08/19 10:39:29;;;;;;;;;;;22.40;99.90;;;;;;5052360;28;19916;-70
2022/08/19 10:41:55;;;;;;;;;;;22.30;99.90;;;;;;5040058;28;19923;-72
2022/08/19 10:44:22;;;;;;;;;;;22.40;99.90;;;;;;5021646;28;20302;-72
2022/08/19 10:46:48;;;;;;;;;;;22.70;99.90;;;;;;5045365;28;19931;-72
2022/08/19 10:49:14;;;;;;;;;;;22.80;99.90;;;;;;5057071;28;19916;-72
2022/08/19 10:56:50;;;;;;;;;;;22.20;99.90;;;;;;5057665;28;19927;-71
2022/08/19 10:57:09;;;;;;;;;;;21.80;99.90;;;;;;5051001;28;19925;-72
2022/08/19 10:59:35;;;;;;;;;;;21.90;99.90;;;;;;5058914;28;19966;-72
2022/08/19 11:02:02;;;;;;;;;;;22.30;99.90;;;;;;5082375;28;19916;-71
2022/08/19 11:04:27;;;;;;;;;;;23.60;99.90;;;;;;5082421;28;19912;-69
2022/08/19 11:06:53;;;;;;;;;;;25.00;99.90;;;;;;5079938;28;19916;-69
2022/08/19 11:09:29;;;;;;;;;;;25.40;99.90;;;;;;5028550;28;19970;-69
2022/08/19 11:11:56;;;;;;;;;;;25.50;99.90;;;;;;5064265;28;20012;-68
2022/08/19 11:14:23;;;;;;;;;;;25.90;99.90;;;;;;5076395;28;19935;-69
2022/08/19 11:16:51;;;;;;;;;;;26.50;99.90;;;;;;5049316;28;19936;-69
2022/08/19 11:19:19;;;;;;;;;;;27.40;99.90;;;;;;5065695;28;19917;-69
2022/08/19 11:21:46;;;;;;;;;;;28.20;99.90;;;;;;5062247;28;19916;-69
2022/08/19 11:24:13;;;;;;;;;;;27.40;99.90;;;;;;5049381;28;20362;-68
2022/08/19 11:26:39;;;;;;;;;;;26.70;99.90;;;;;;5054591;28;20857;-68
2022/08/19 11:29:06;;;;;;;;;;;25.60;99.90;;;;;;5057508;28;19924;-68
2022/08/19 11:31:33;;;;;;;;;;;24.60;99.90;;;;;;5037726;28;19921;-68
2022/08/19 11:34:00;;;;;;;;;;;23.90;99.90;;;;;;5065928;28;19947;-68
2022/08/19 11:36:26;;;;;;;;;;;23.20;99.90;;;;;;5057096;28;19920;-71
2022/08/19 11:38:52;;;;;;;;;;;22.70;99.90;;;;;;4716772;28;10000431;-71
2022/08/19 11:41:18;;;;;;;;;;;22.30;99.90;;;;;;5036082;28;19921;-71
2022/08/19 11:43:44;;;;;;;;;;;21.90;99.90;;;;;;5061355;28;19939;-71
2022/08/19 11:46:11;;;;;;;;;;;21.70;99.90;;;;;;5064791;28;20351;-71
2022/08/19 11:48:37;;;;;;;;;;;21.40;99.90;;;;;;5052072;28;19984;-71
2022/08/19 11:51:05;;;;;;;;;;;21.20;99.90;;;;;;5060523;28;19927;-74
2022/08/19 11:53:31;;;;;;;;;;;20.90;99.90;;;;;;5042598;28;19923;-75
2022/08/19 11:55:57;;;;;;;;;;;20.70;99.90;;;;;;5048146;28;19928;-76
2022/08/19 11:58:22;;;;;;;;;;;20.80;99.90;;;;;;5062358;28;20766;-75
2022/08/19 12:00:48;;;;;;;;;;;21.30;99.90;;;;;;5056875;28;20450;-76
2022/08/19 12:03:14;;;;;;;;;;;21.80;99.90;;;;;;5066238;28;19924;-76
2022/08/19 12:05:39;;;;;;;;;;;22.20;99.90;;;;;;5058743;28;20069;-68
2022/08/19 12:08:05;;;;;;;;;;;22.60;99.90;;;;;;5056380;28;20014;-73
2022/08/19 12:10:31;;;;;;;;;;;22.60;99.90;;;;;;5057685;28;20388;-72
2022/08/19 12:12:57;;;;;;;;;;;22.30;99.90;;;;;;5057240;28;20742;-72
2022/08/19 12:15:23;;;;;;;;;;;22.00;99.90;;;;;;5057761;28;19923;-72
2022/08/19 12:17:48;;;;;;;;;;;21.60;99.90;;;;;;5037198;28;19921;-72
2022/08/19 12:20:16;;;;;;;;;;;21.50;99.90;;;;;;5038749;28;20003;-72
2022/08/19 12:22:42;;;;;;;;;;;21.80;99.90;;;;;;5046283;28;19935;-72
2022/08/19 12:25:09;;;;;;;;;;;22.20;99.90;;;;;;5049551;28;20027;-72
2022/08/19 12:27:35;;;;;;;;;;;22.40;99.90;;;;;;5037041;28;19920;-71
2022/08/19 12:30:02;;;;;;;;;;;22.40;99.90;;;;;;5056585;28;20057;-71
2022/08/19 12:32:28;;;;;;;;;;;22.40;99.90;;;;;;5041931;28;20003;-71
2022/08/19 12:34:54;;;;;;;;;;;22.50;99.90;;;;;;5044931;28;20015;-71
2022/08/19 12:37:19;;;;;;;;;;;22.90;99.90;;;;;;5049885;28;20019;-71
2022/08/19 12:39:46;;;;;;;;;;;23.30;99.90;;;;;;5047863;28;20237;-73
2022/08/19 12:42:12;;;;;;;;;;;23.60;99.90;;;;;;5026853;28;20509;-68
2022/08/19 12:44:39;;;;;;;;;;;24.00;99.90;;;;;;5039975;28;19920;-69
2022/08/19 12:47:05;;;;;;;;;;;23.90;99.90;;;;;;5051235;28;19922;-71
2022/08/19 12:49:33;;;;;;;;;;;23.60;99.90;;;;;;5036715;28;19996;-71
2022/08/19 12:52:02;;;;;;;;;;;23.50;99.90;;;;;;5056183;28;19915;-71
2022/08/19 12:54:30;;;;;;;;;;;23.70;99.90;;;;;;5053846;28;19920;-69
2022/08/19 12:56:56;;;;;;;;;;;24.00;99.90;;;;;;5048749;28;20012;-68
2022/08/19 12:59:22;;;;;;;;;;;23.90;99.90;;;;;;5051022;28;20447;-71
2022/08/19 13:01:47;;;;;;;;;;;23.90;99.90;;;;;;5052157;28;20003;-69
2022/08/19 13:04:13;;;;;;;;;;;23.90;99.90;;;;;;5046984;28;20276;-68
2022/08/19 13:06:38;;;;;;;;;;;23.80;99.90;;;;;;5042404;28;19999;-68
2022/08/19 13:09:04;;;;;;;;;;;23.40;99.90;;;;;;5054627;28;19920;-70
2022/08/19 13:11:34;;;;;;;;;;;23.50;99.90;;;;;;5039825;28;19917;-69
2022/08/19 13:14:00;;;;;;;;;;;23.80;99.90;;;;;;5046566;28;20296;-68
2022/08/19 13:16:27;;;;;;;;;;;24.30;99.90;;;;;;5053325;28;20375;-68
2022/08/19 13:18:53;;;;;;;;;;;24.70;99.90;;;;;;5063968;28;20410;-69
2022/08/19 13:21:19;;;;;;;;;;;24.90;99.90;;;;;;5044120;28;19916;-69
2022/08/19 13:23:45;;;;;;;;;;;25.10;99.90;;;;;;5051123;28;19919;-69
2022/08/19 13:26:11;;;;;;;;;;;25.00;99.90;;;;;;5073085;28;19919;-69
2022/08/19 13:34:07;;;;;;;;;;;24.50;99.90;;;;;;5043324;28;19928;-68
2022/08/19 13:36:32;;;;;;;;;;;24.40;99.90;;;;;;5064210;28;19925;-68
2022/08/19 13:38:58;;;;;;;;;;;24.40;99.90;;;;;;5038179;28;20275;-68
2022/08/19 13:41:24;;;;;;;;;;;24.30;99.90;;;;;;5061199;28;19942;-68
2022/08/19 13:43:50;;;;;;;;;;;24.10;99.90;;;;;;4707807;28;9999882;-68
2022/08/19 13:46:15;;;;;;;;;;;24.00;99.90;;;;;;5032843;28;19931;-68
2022/08/19 13:48:41;;;;;;;;;;;24.10;99.90;;;;;;5072909;28;20291;-69
2022/08/19 13:51:09;;;;;;;;;;;24.00;99.90;;;;;;5062919;28;19947;-69
2022/08/19 13:53:39;;;;;;;;;;;24.00;99.90;;;;;;5057342;28;20364;-68
2022/08/19 13:56:05;;;;;;;;;;;24.60;99.90;;;;;;5044202;28;19927;-69
2022/08/19 13:58:31;;;;;;;;;;;24.70;99.90;;;;;;5056548;28;19975;-69
2022/08/19 14:00:57;;;;;;;;;;;24.60;99.90;;;;;;5058598;28;19956;-69
2022/08/19 14:03:23;;;;;;;;;;;24.30;99.90;;;;;;5053320;28;19924;-69
2022/08/19 14:05:49;;;;;;;;;;;24.30;99.90;;;;;;5039158;28;19920;-69
2022/08/19 14:08:14;;;;;;;;;;;24.20;99.90;;;;;;5050386;28;20103;-69
2022/08/19 14:10:40;;;;;;;;;;;23.90;99.90;;;;;;5025932;28;20102;-69
2022/08/19 14:13:06;;;;;;;;;;;23.80;99.90;;;;;;5052762;28;20022;-75
2022/08/19 14:15:31;;;;;;;;;;;23.70;99.90;;;;;;5057573;28;19921;-73
2022/08/19 14:17:57;;;;;;;;;;;23.30;99.90;;;;;;5056576;28;20025;-71
2022/08/19 14:20:23;;;;;;;;;;;23.40;99.90;;;;;;5061339;28;20020;-68
2022/08/19 14:22:49;;;;;;;;;;;23.40;99.90;;;;;;4704204;28;10000183;-73
2022/08/19 14:25:19;;;;;;;;;;;23.80;99.90;;;;;;5049482;28;19916;-72
2022/08/19 14:27:45;;;;;;;;;;;24.20;99.90;;;;;;5051301;28;19924;-73
2022/08/19 14:30:12;;;;;;;;;;;24.60;99.90;;;;;;5048565;28;20442;-72
2022/08/19 14:32:37;;;;;;;;;;;24.70;99.90;;;;;;5034514;28;19963;-73
2022/08/19 14:35:04;;;;;;;;;;;24.80;99.90;;;;;;5035289;28;19967;-72
2022/08/19 14:37:29;;;;;;;;;;;24.70;99.90;;;;;;5053375;28;20371;-68